createdAt,value
2019-04-21T00:02:11.047Z,23.04
2019-04-21T00:04:54.995Z,23.05
2019-04-21T00:07:37.742Z,23.01
2019-04-21T00:10:18.853Z,23.02
2019-04-21T00:12:49.256Z,22.97
2019-04-21T00:15:16.735Z,22.95
2019-04-21T00:17:39.080Z,22.97
2019-04-21T00:20:23.842Z,22.94
2019-04-21T00:23:05.926Z,22.80
2019-04-21T00:25:36.195Z,22.80
2019-04-21T00:28:16.873Z,22.77
2019-04-21T00:30:50.840Z,22.66
2019-04-21T00:33:17.125Z,22.67
2019-04-21T00:35:49.919Z,22.65
2019-04-21T00:38:56.369Z,22.59
2019-04-21T00:41:16.101Z,22.58
2019-04-21T00:43:46.331Z,22.53
2019-04-21T00:46:10.818Z,22.53
2019-04-21T00:48:56.479Z,22.43
2019-04-21T00:51:49.838Z,22.44
2019-04-21T00:54:16.692Z,22.44
2019-04-21T00:56:50.043Z,22.35
2019-04-21T00:59:20.016Z,22.31
2019-04-21T01:01:49.386Z,22.29
2019-04-21T01:04:30.724Z,22.20
2019-04-21T01:07:03.041Z,22.20
2019-04-21T01:09:29.076Z,22.10
2019-04-21T01:12:07.825Z,22.10
2019-04-21T01:14:50.261Z,22.07
2019-04-21T01:17:19.299Z,22.03
2019-04-21T01:19:43.898Z,21.98
2019-04-21T01:22:05.788Z,21.86
2019-04-21T01:24:43.371Z,21.87
2019-04-21T01:27:25.045Z,21.87
2019-04-21T01:30:05.688Z,21.80
2019-04-21T01:32:46.985Z,21.79
2019-04-21T01:35:21.135Z,21.75
2019-04-21T01:38:03.040Z,21.73
2019-04-21T01:40:40.838Z,21.70
2019-04-21T01:43:17.612Z,21.66
2019-04-21T01:45:53.517Z,21.62
2019-04-21T01:48:25.750Z,21.60
2019-04-21T01:50:56.795Z,21.52
2019-04-21T01:54:03.539Z,21.50
2019-04-21T01:57:03.372Z,21.36
2019-04-21T01:59:30.551Z,21.36
2019-04-21T02:02:15.997Z,21.39
2019-04-21T02:04:49.192Z,21.32
2019-04-21T02:07:15.182Z,21.39
2019-04-21T02:09:55.388Z,21.35
2019-04-21T02:12:41.066Z,21.19
2019-04-21T02:15:00.735Z,21.24
2019-04-21T02:17:29.750Z,21.24
2019-04-21T02:19:56.166Z,21.15
2019-04-21T02:22:46.749Z,21.11
2019-04-21T02:27:47.445Z,21.06
2019-04-21T02:30:27.612Z,21.08
2019-04-21T02:33:21.752Z,21.06
2019-04-21T02:38:08.913Z,20.98
2019-04-21T02:43:18.652Z,20.83
2019-04-21T02:45:56.036Z,20.80
2019-04-21T02:48:30.812Z,20.77
2019-04-21T02:51:01.587Z,20.74
2019-04-21T02:56:11.189Z,20.71
2019-04-21T02:58:57.006Z,20.69
2019-04-21T03:01:49.016Z,20.63
2019-04-21T03:05:02.393Z,20.51
2019-04-21T03:12:37.690Z,20.27
2019-04-21T03:17:49.970Z,20.26
2019-04-21T03:20:23.693Z,20.31
2019-04-21T03:23:00.386Z,19.95
2019-04-21T03:28:06.451Z,20.18
2019-04-21T03:33:59.514Z,20.02
2019-04-21T03:36:12.929Z,20.07
2019-04-21T03:38:37.489Z,20.09
2019-04-21T03:40:57.272Z,19.78
2019-04-21T03:46:23.227Z,19.85
2019-04-21T03:48:44.281Z,19.72
2019-04-21T03:51:31.423Z,19.77
2019-04-21T03:53:48.076Z,19.73
2019-04-21T03:56:27.232Z,19.78
2019-04-21T04:01:41.233Z,19.81
2019-04-21T04:07:42.474Z,19.76
2019-04-21T04:10:02.482Z,19.80
2019-04-21T04:12:28.538Z,19.59
2019-04-21T04:15:12.107Z,19.57
2019-04-21T04:17:40.466Z,19.64
2019-04-21T04:20:11.741Z,19.56
2019-04-21T04:22:52.630Z,19.52
2019-04-21T04:25:18.846Z,19.51
2019-04-21T04:28:05.761Z,19.48
2019-04-21T04:32:59.456Z,19.39
2019-04-21T04:35:45.798Z,19.38
2019-04-21T04:38:03.039Z,19.35
2019-04-21T04:41:07.983Z,19.43
2019-04-21T04:43:54.691Z,19.32
2019-04-21T04:48:45.121Z,19.31
2019-04-21T04:51:12.297Z,19.14
2019-04-21T04:53:47.186Z,19.05
2019-04-21T04:56:50.172Z,19.17
2019-04-21T05:01:46.871Z,18.86
2019-04-21T05:04:07.595Z,18.95
2019-04-21T05:14:41.027Z,19.09
2019-04-21T05:17:10.815Z,19.12
2019-04-21T05:22:04.981Z,19.05
2019-04-21T05:24:33.246Z,19.21
2019-04-21T05:27:02.853Z,19.26
2019-04-21T05:29:54.991Z,19.29
2019-04-21T05:32:45.256Z,19.30
2019-04-21T05:35:36.917Z,19.29
2019-04-21T05:38:17.193Z,19.31
2019-04-21T05:40:41.408Z,19.44
2019-04-21T05:43:26.001Z,19.58
2019-04-21T05:45:58.353Z,19.55
2019-04-21T05:48:39.239Z,19.49
2019-04-21T05:51:03.597Z,19.59
2019-04-21T05:53:42.462Z,19.55
2019-04-21T05:56:15.970Z,19.47
2019-04-21T05:58:48.060Z,19.42
2019-04-21T06:01:43.725Z,19.22
2019-04-21T06:04:03.545Z,19.04
2019-04-21T06:06:33.702Z,18.98
2019-04-21T06:09:00.929Z,19.21
2019-04-21T06:11:36.593Z,19.39
2019-04-21T06:14:31.052Z,19.20
2019-04-21T06:16:54.321Z,19.27
2019-04-21T06:19:24.050Z,19.32
2019-04-21T06:21:44.744Z,19.37
2019-04-21T06:24:21.795Z,19.32
2019-04-21T06:29:30.107Z,19.24
2019-04-21T06:32:28.092Z,18.49
2019-04-21T06:34:53.477Z,18.08
2019-04-21T06:42:54.058Z,18.89
2019-04-21T06:45:20.074Z,19.33
2019-04-21T06:48:02.838Z,19.41
2019-04-21T06:50:35.251Z,19.82
2019-04-21T06:53:22.076Z,19.99
2019-04-21T06:55:32.358Z,19.88
2019-04-21T06:58:07.981Z,19.85
2019-04-21T07:00:38.838Z,19.97
2019-04-21T07:05:50.602Z,20.04
2019-04-21T07:08:29.032Z,20.35
2019-04-21T07:10:54.477Z,20.04
2019-04-21T07:13:29.054Z,20.33
2019-04-21T07:16:07.194Z,20.47
2019-04-21T07:18:41.573Z,20.60
2019-04-21T07:21:07.937Z,20.61
2019-04-21T07:23:47.511Z,20.62
2019-04-21T07:26:10.511Z,20.73
2019-04-21T07:28:56.494Z,20.74
2019-04-21T07:31:31.947Z,20.74
2019-04-21T07:34:00.230Z,21.01
2019-04-21T07:36:38.331Z,20.86
2019-04-21T07:39:04.167Z,20.78
2019-04-21T07:41:31.030Z,20.61
2019-04-21T07:44:00.392Z,21.22
2019-04-21T07:46:36.589Z,21.22
2019-04-21T07:49:38.173Z,21.46
2019-04-21T07:52:48.964Z,21.46
2019-04-21T07:57:45.731Z,21.51
2019-04-21T08:00:29.331Z,21.52
2019-04-21T08:03:00.452Z,21.88
2019-04-21T08:05:31.356Z,22.15
2019-04-21T08:07:57.774Z,22.23
2019-04-21T08:10:39.140Z,22.30
2019-04-21T08:13:28.811Z,22.30
2019-04-21T08:16:00.559Z,22.55
2019-04-21T08:18:35.007Z,21.17
2019-04-21T08:21:06.100Z,21.85
2019-04-21T08:23:43.514Z,22.61
2019-04-21T08:26:13.915Z,22.83
2019-04-21T08:28:53.693Z,23.07
2019-04-21T08:31:33.981Z,23.20
2019-04-21T08:34:03.301Z,23.29
2019-04-21T08:36:30.853Z,23.34
2019-04-21T08:38:59.756Z,23.49
2019-04-21T08:41:34.547Z,23.47
2019-04-21T08:44:10.662Z,23.27
2019-04-21T08:46:39.066Z,23.52
2019-04-21T08:49:17.360Z,22.94
2019-04-21T08:51:53.882Z,23.48
2019-04-21T08:57:28.870Z,24.12
2019-04-21T09:00:20.101Z,24.41
2019-04-21T09:03:03.739Z,24.50
2019-04-21T09:05:35.680Z,24.73
2019-04-21T09:08:11.579Z,24.83
2019-04-21T09:10:47.041Z,24.53
2019-04-21T09:13:17.375Z,24.92
2019-04-21T09:15:49.632Z,25.23
2019-04-21T09:18:18.552Z,25.10
2019-04-21T09:21:01.128Z,25.38
2019-04-21T09:23:36.387Z,25.41
2019-04-21T09:26:05.634Z,25.42
2019-04-21T09:28:36.723Z,25.52
2019-04-21T09:30:57.774Z,25.73
2019-04-21T09:33:33.434Z,25.85
2019-04-21T09:36:06.230Z,25.21
2019-04-21T09:38:39.853Z,25.26
2019-04-21T09:41:15.954Z,25.59
2019-04-21T09:43:46.558Z,25.74
2019-04-21T09:46:14.207Z,26.00
2019-04-21T09:48:55.063Z,26.14
2019-04-21T09:51:19.980Z,26.47
2019-04-21T09:53:57.255Z,26.69
2019-04-21T09:56:36.089Z,26.57
2019-04-21T09:59:11.351Z,26.85
2019-04-21T10:01:45.191Z,26.91
2019-04-21T10:04:05.775Z,27.26
2019-04-21T10:06:39.540Z,27.42
2019-04-21T10:09:16.040Z,27.59
2019-04-21T10:11:48.395Z,27.92
2019-04-21T10:14:19.770Z,28.03
2019-04-21T10:17:06.909Z,28.06
2019-04-21T10:19:39.740Z,28.35
2019-04-21T10:22:12.526Z,28.52
2019-04-21T10:24:52.320Z,28.57
2019-04-21T10:27:25.565Z,28.63
2019-04-21T10:29:59.346Z,28.91
2019-04-21T10:32:34.461Z,29.15
2019-04-21T10:35:07.460Z,29.28
2019-04-21T10:37:55.145Z,29.57
2019-04-21T10:40:17.986Z,29.72
2019-04-21T10:42:50.055Z,29.90
2019-04-21T10:45:21.234Z,29.98
2019-04-21T10:47:54.724Z,30.06
2019-04-21T10:50:31.317Z,30.28
2019-04-21T10:53:16.970Z,30.33
2019-04-21T10:56:11.452Z,30.16
2019-04-21T10:58:42.380Z,30.19
2019-04-21T11:01:21.433Z,30.08
2019-04-21T11:04:22.778Z,30.71
2019-04-21T11:07:04.222Z,31.01
2019-04-21T11:09:32.264Z,31.33
2019-04-21T11:12:04.087Z,31.35
2019-04-21T11:14:35.492Z,31.32
2019-04-21T11:17:07.877Z,31.66
2019-04-21T11:19:38.941Z,31.78
2019-04-21T11:22:10.512Z,31.62
2019-04-21T11:24:43.034Z,31.96
2019-04-21T11:27:14.986Z,31.83
2019-04-21T11:29:47.466Z,32.22
2019-04-21T11:32:19.071Z,32.33
2019-04-21T11:34:49.923Z,32.20
2019-04-21T11:37:24.654Z,32.55
2019-04-21T11:40:03.360Z,33.01
2019-04-21T11:42:35.600Z,33.25
2019-04-21T11:45:12.513Z,33.42
2019-04-21T11:48:04.202Z,33.18
2019-04-21T11:50:37.015Z,33.43
2019-04-21T11:53:23.170Z,33.32
2019-04-21T11:56:18.727Z,33.52
2019-04-21T11:59:05.895Z,33.84
2019-04-21T12:01:45.664Z,34.18
2019-04-21T12:04:43.453Z,34.55
2019-04-21T12:07:29.329Z,34.91
2019-04-21T12:10:03.890Z,34.50
2019-04-21T12:12:35.457Z,34.58
2019-04-21T12:15:08.119Z,34.84
2019-04-21T12:17:41.780Z,35.20
2019-04-21T12:20:12.766Z,35.13
2019-04-21T12:22:43.641Z,35.38
2019-04-21T12:25:16.696Z,34.70
2019-04-21T12:27:50.361Z,34.75
2019-04-21T12:30:21.895Z,34.36
2019-04-21T12:33:06.352Z,34.87
2019-04-21T12:35:39.788Z,33.93
2019-04-21T12:38:10.949Z,34.21
2019-04-21T12:40:44.349Z,33.87
2019-04-21T12:43:16.774Z,33.58
2019-04-21T12:45:49.613Z,33.39
2019-04-21T12:48:22.124Z,33.79
2019-04-21T12:50:54.292Z,34.28
2019-04-21T12:53:29.727Z,34.21
2019-04-21T12:56:05.468Z,34.58
2019-04-21T12:58:43.521Z,34.47
2019-04-21T13:01:20.949Z,34.80
2019-04-21T13:03:53.584Z,34.93
2019-04-21T13:06:25.521Z,35.59
2019-04-21T13:09:03.426Z,34.97
2019-04-21T13:11:30.959Z,34.04
2019-04-21T13:14:06.143Z,34.27
2019-04-21T13:16:37.434Z,34.52
2019-04-21T13:19:09.385Z,35.43
2019-04-21T13:21:40.850Z,35.51
2019-04-21T13:24:15.825Z,36.62
2019-04-21T13:26:58.024Z,36.89
2019-04-21T13:32:43.227Z,38.21
2019-04-21T13:35:19.119Z,39.58
2019-04-21T13:37:50.698Z,40.66
2019-04-21T13:41:01.118Z,41.49
2019-04-21T13:43:19.006Z,41.27
2019-04-21T13:45:51.806Z,40.56
2019-04-21T13:48:24.414Z,41.77
2019-04-21T13:50:59.436Z,42.75
2019-04-21T13:53:34.949Z,41.00
2019-04-21T13:56:06.970Z,40.64
2019-04-21T13:58:38.261Z,42.05
2019-04-21T14:01:11.835Z,42.78
2019-04-21T14:03:45.510Z,43.39
2019-04-21T14:06:16.587Z,45.32
2019-04-21T14:08:56.910Z,46.74
2019-04-21T14:11:29.321Z,47.77
2019-04-21T14:14:00.650Z,48.98
2019-04-21T14:16:35.981Z,49.85
2019-04-21T14:19:07.609Z,50.93
2019-04-21T14:21:39.366Z,51.38
2019-04-21T14:24:10.856Z,52.36
2019-04-21T14:26:42.848Z,52.10
2019-04-21T14:29:15.380Z,51.09
2019-04-21T14:31:48.427Z,50.31
2019-04-21T14:34:21.819Z,49.01
2019-04-21T14:36:54.922Z,49.68
2019-04-21T14:39:26.378Z,50.00
2019-04-21T14:41:58.157Z,47.16
2019-04-21T14:44:29.227Z,47.83
2019-04-21T14:47:53.036Z,46.22
2019-04-21T14:50:46.399Z,45.08
2019-04-21T14:53:21.102Z,45.00
2019-04-21T14:55:53.189Z,45.00
2019-04-21T14:58:25.435Z,43.96
2019-04-21T15:01:06.035Z,43.91
2019-04-21T15:03:39.481Z,41.66
2019-04-21T15:06:09.769Z,42.18
2019-04-21T15:08:58.447Z,43.51
2019-04-21T15:11:33.807Z,44.07
2019-04-21T15:14:09.616Z,45.05
2019-04-21T15:16:49.517Z,45.59
2019-04-21T15:19:22.414Z,46.27
2019-04-21T15:21:54.274Z,47.51
2019-04-21T15:24:26.519Z,48.08
2019-04-21T15:26:58.976Z,47.83
2019-04-21T15:29:30.851Z,45.29
2019-04-21T15:32:04.281Z,43.26
2019-04-21T15:34:38.244Z,41.25
2019-04-21T15:37:08.530Z,40.10
2019-04-21T15:39:42.500Z,38.00
2019-04-21T15:42:18.648Z,37.38
2019-04-21T15:44:56.805Z,36.49
2019-04-21T15:47:37.997Z,35.67
2019-04-21T15:50:17.618Z,35.15
2019-04-21T15:52:49.707Z,34.20
2019-04-21T15:55:39.080Z,33.59
2019-04-21T15:58:28.265Z,33.52
2019-04-21T16:01:30.256Z,33.51
2019-04-21T16:04:06.534Z,32.29
2019-04-21T16:06:41.830Z,32.16
2019-04-21T16:09:25.789Z,32.48
2019-04-21T16:11:59.988Z,31.96
2019-04-21T16:14:32.472Z,31.89
2019-04-21T16:17:03.403Z,31.64
2019-04-21T16:19:34.324Z,31.59
2019-04-21T16:22:08.527Z,31.66
2019-04-21T16:24:43.886Z,31.26
2019-04-21T16:27:19.476Z,31.49
2019-04-21T16:29:52.146Z,31.61
2019-04-21T16:32:24.080Z,31.17
2019-04-21T16:35:01.529Z,31.29
2019-04-21T16:37:35.466Z,31.38
2019-04-21T16:40:11.684Z,31.33
2019-04-21T16:42:47.978Z,31.31
2019-04-21T16:45:39.023Z,31.18
2019-04-21T16:48:19.157Z,31.20
2019-04-21T16:50:57.401Z,31.11
2019-04-21T16:53:37.722Z,30.99
2019-04-21T16:56:29.439Z,30.98
2019-04-21T16:59:08.620Z,30.93
2019-04-21T17:01:54.239Z,30.93
2019-04-21T17:04:26.460Z,30.82
2019-04-21T17:07:00.875Z,30.77
2019-04-21T17:09:34.702Z,30.53
2019-04-21T17:12:11.491Z,30.57
2019-04-21T17:14:58.211Z,30.51
2019-04-21T17:17:37.188Z,30.47
2019-04-21T17:19:53.787Z,30.51
2019-04-21T17:22:25.752Z,30.44
2019-04-21T17:25:02.664Z,30.29
2019-04-21T17:27:47.081Z,30.26
2019-04-21T17:30:30.780Z,30.19
2019-04-21T17:33:14.951Z,30.14
2019-04-21T17:35:42.801Z,30.05
2019-04-21T17:38:16.376Z,30.06
2019-04-21T17:40:47.853Z,29.98
2019-04-21T17:43:21.753Z,29.96
2019-04-21T17:45:54.919Z,29.91
2019-04-21T17:48:29.281Z,29.81
2019-04-21T17:51:21.442Z,29.78
2019-04-21T17:54:15.966Z,29.71
2019-04-21T17:59:45.089Z,29.54
2019-04-21T18:02:05.132Z,29.48
2019-04-21T18:04:43.118Z,29.45
2019-04-21T18:07:34.963Z,29.40
2019-04-21T18:10:07.455Z,29.30
2019-04-21T18:12:36.439Z,29.20
2019-04-21T18:15:20.599Z,29.09
2019-04-21T18:17:36.530Z,29.02
2019-04-21T18:20:12.260Z,28.95
2019-04-21T18:23:19.865Z,28.90
2019-04-21T18:25:50.534Z,28.85
2019-04-21T18:28:14.499Z,28.66
2019-04-21T18:31:02.398Z,28.60
2019-04-21T18:33:40.892Z,28.55
2019-04-21T18:36:34.818Z,28.49
2019-04-21T18:39:46.132Z,28.42
2019-04-21T18:42:54.394Z,28.33
2019-04-21T18:46:14.507Z,28.27
2019-04-21T18:48:51.580Z,28.15
2019-04-21T18:51:57.569Z,28.05
2019-04-21T18:54:49.093Z,27.97
2019-04-21T18:57:21.982Z,27.87
2019-04-21T18:59:51.316Z,27.73
2019-04-21T19:02:39.075Z,27.66
2019-04-21T19:05:17.193Z,27.59
2019-04-21T19:08:08.968Z,27.50
2019-04-21T19:10:52.209Z,27.52
2019-04-21T19:13:36.339Z,27.39
2019-04-21T19:16:22.564Z,27.23
2019-04-21T19:19:06.409Z,27.40
2019-04-21T19:21:07.312Z,27.23
2019-04-21T19:24:03.717Z,27.37
2019-04-21T19:26:21.704Z,27.35
2019-04-21T19:28:52.674Z,27.35
2019-04-21T19:31:23.557Z,27.32
2019-04-21T19:33:48.756Z,27.21
2019-04-21T19:36:08.769Z,27.21
2019-04-21T19:38:49.074Z,27.16
2019-04-21T19:41:28.001Z,27.11
2019-04-21T19:44:03.781Z,27.08
2019-04-21T19:46:31.551Z,27.06
2019-04-21T19:49:13.434Z,26.93
2019-04-21T19:51:35.231Z,26.85
2019-04-21T19:54:02.168Z,26.75
2019-04-21T19:56:30.457Z,26.68
2019-04-21T19:59:01.469Z,26.75
2019-04-21T20:01:35.137Z,26.66
2019-04-21T20:04:14.603Z,26.55
2019-04-21T20:07:00.725Z,26.48
2019-04-21T20:09:36.738Z,26.49
2019-04-21T20:12:10.693Z,26.47
2019-04-21T20:15:37.346Z,26.42
2019-04-21T20:18:16.529Z,26.40
2019-04-21T20:20:40.825Z,26.36
2019-04-21T20:23:19.212Z,26.29
2019-04-21T20:25:50.940Z,26.26
2019-04-21T20:28:33.356Z,26.18
2019-04-21T20:31:15.523Z,26.19
2019-04-21T20:33:59.941Z,26.14
2019-04-21T20:36:43.187Z,25.94
2019-04-21T20:39:03.539Z,26.02
2019-04-21T20:41:40.580Z,25.98
2019-04-21T20:44:19.512Z,25.93
2019-04-21T20:46:51.616Z,25.87
2019-04-21T20:49:19.237Z,25.79
2019-04-21T20:52:04.818Z,25.74
2019-04-21T20:54:31.728Z,25.66
2019-04-21T20:57:06.958Z,25.63
2019-04-21T20:59:31.732Z,25.60
2019-04-21T21:02:16.602Z,25.54
2019-04-21T21:04:32.643Z,25.37
2019-04-21T21:07:30.601Z,25.32
2019-04-21T21:09:55.550Z,25.31
2019-04-21T21:12:34.594Z,25.21
2019-04-21T21:14:52.975Z,25.24
2019-04-21T21:20:21.235Z,25.09
2019-04-21T21:26:36.774Z,25.00
2019-04-21T21:29:11.623Z,24.96
2019-04-21T21:32:05.204Z,24.88
2019-04-21T21:34:32.920Z,24.82
2019-04-21T21:37:17.441Z,24.75
2019-04-21T21:39:48.846Z,24.67
2019-04-21T21:41:59.730Z,24.60
2019-04-21T21:44:28.239Z,24.55
2019-04-21T21:47:12.057Z,24.53
2019-04-21T21:49:43.685Z,24.48
2019-04-21T21:52:14.567Z,24.39
2019-04-21T21:54:36.006Z,24.38
2019-04-21T21:57:10.218Z,24.37
2019-04-21T21:59:41.876Z,24.29
2019-04-21T22:02:17.118Z,24.27
2019-04-21T22:05:05.411Z,24.21
2019-04-21T22:07:38.742Z,24.14
2019-04-21T22:10:32.789Z,24.07
2019-04-21T22:13:14.156Z,23.88
2019-04-21T22:16:10.361Z,23.72
2019-04-21T22:19:07.950Z,23.77
2019-04-21T22:21:53.607Z,23.33
2019-04-21T22:24:36.271Z,23.28
2019-04-21T22:26:49.609Z,23.29
2019-04-21T22:29:21.336Z,23.43
2019-04-21T22:32:04.162Z,23.28
2019-04-21T22:34:35.762Z,23.25
2019-04-21T22:37:22.769Z,23.33
2019-04-21T22:39:53.054Z,23.29
2019-04-21T22:42:18.944Z,23.37
2019-04-21T22:44:44.033Z,23.32
2019-04-21T22:47:21.912Z,23.35
2019-04-21T22:49:46.638Z,23.23
2019-04-21T22:52:23.889Z,23.27
2019-04-21T22:54:55.812Z,23.16
2019-04-21T22:57:32.727Z,23.10
2019-04-21T23:00:07.098Z,23.18
2019-04-21T23:02:38.548Z,23.10
2019-04-21T23:05:09.878Z,23.10
2019-04-21T23:07:50.297Z,23.10
2019-04-21T23:10:17.204Z,22.97
2019-04-21T23:12:52.173Z,22.90
2019-04-21T23:15:35.638Z,22.92
2019-04-21T23:18:17.803Z,22.92
2019-04-21T23:20:53.562Z,22.87
2019-04-21T23:23:35.805Z,22.89
2019-04-21T23:26:11.306Z,22.83
2019-04-21T23:28:55.742Z,22.78
2019-04-21T23:31:19.809Z,22.74
2019-04-21T23:33:33.257Z,22.72
2019-04-21T23:36:12.902Z,22.58
2019-04-21T23:38:44.183Z,22.58
2019-04-21T23:41:15.385Z,22.63
2019-04-21T23:43:53.099Z,22.74
2019-04-21T23:46:28.147Z,22.57
2019-04-21T23:49:07.489Z,22.56
2019-04-21T23:51:37.717Z,22.53
2019-04-21T23:54:01.779Z,22.35
2019-04-21T23:56:39.470Z,22.42
2019-04-21T23:59:11.590Z,22.39
